Lester, Alabama
Current Conditions -  °F | °C
As of 3:53 AM on Saturday 01 Nov 2014 (Local Time) from KDCU Reporting Station
Clear Clear  
Wind Chill: -3°   Ceiling: Unl
Heat Index:   Visibility: 10mi
Dew Point: -4°   Wind: 21mph
Humidity: 62%   Direction: 330°NNW
Pressure: 30.16"   Gusts: 26mph
Location:  34.99°N, 87.15°W
Report Text: KDCU 010853Z AUTO 33018G23KT 10SM CLR 03/M04 A3016 RMK AO2 SLP214 T00281039 53003 $
Loading
Personal Weather Stations






























Interactive Weather Map
Tropical Storm Tracking
New forecast layout! Learn more

10-Day Weather Forecast

Advertisements
Track Severe Weather on mobile